METAR Data
IDs: Format: Raw Decoded Include TAF

Data at: 1925 UTC 21 Sep 2021

VILK 211900Z VRB02KT 3500 BR SCT020 BKN100 27/25 Q1005 NOSIG
VILK 211830Z VRB02KT 3500 BR SCT020 BKN100 28/26 Q1005 NOSIG
VILK 211800Z VRB02KT 3500 BR SCT020 BKN100 28/26 Q1005 NOSIG
VILK 211730Z VRB02KT 3500 BR SCT020 BKN100 28/26 Q1005 NOSIG
VILK 211700Z VRB02KT 4000 BR SCT020 BKN100 28/26 Q1005 NOSIG
VILK 211630Z VRB02KT 4000 HZ SCT020 SCT100 28/26 Q1006 NOSIG
VILK 211600Z 04005KT 4000 HZ SCT020 SCT100 28/26 Q1006 NOSIG
VILK 211530Z 05003KT 4000 HZ SCT020 SCT100 28/26 Q1006 NOSIG
VILK 211500Z VRB03KT 4000 HZ SCT020 SCT100 28/27 Q1005 NOSIG
VILK 211430Z 07003KT 4000 HZ SCT020 SCT100 29/27 Q1004 NOSIG
VILK 211400Z 03005KT 4000 HZ FEW020 SCT200 29/27 Q1004 NOSIG
VILK 211330Z 06004KT 4000 HZ FEW020 SCT200 29/27 Q1003 NOSIG
VILK 211300Z 05004KT 5000 HZ SCT020 SCT025 FEW030CB 30/28 Q1003 NOSIG
VILK 211230Z 03004KT 5000 HZ SCT020 SCT025 FEW030CB 31/28 Q1003 NOSIG
VILK 211200Z 06003KT 5000 HZ SCT020 SCT025 FEW030CB BKN200 32/28 Q1002 NOSIG
VILK 211130Z VRB02KT 5000 HZ SCT020 SCT025 FEW030CB 32/29 Q1002 NOSIG
VILK 211100Z VRB02KT 5000 HZ SCT020 SCT025 BKN200 32/29 Q1002 NOSIG
VILK 211030Z VRB03KT 5000 HZ SCT020 SCT025 BKN200 32/29 Q1002 NOSIG
VILK 211000Z VRB03KT 5000 HZ SCT020 SCT025 BKN200 33/29 Q1002 NOSIG
VILK 210930Z 13004KT 5000 HZ SCT020 SCT025 BKN100 34/29 Q1003 NOSIG
VILK 210900Z 14004KT 5000 HZ SCT020 SCT025 BKN100 35/30 Q1003 NOSIG
VILK 210830Z 10004KT 5000 HZ SCT020 SCT025 BKN100 35/30 Q1003 NOSIG
VILK 210800Z 15004KT 5000 HZ SCT020 SCT025 BKN100 35/30 Q1004 NOSIG
VILK 210730Z 15006KT 5000 HZ SCT020 SCT025 BKN100 35/30 Q1005 NOSIG
VILK 210700Z 15003KT 5000 HZ SCT020 SCT025 BKN100 34/30 Q1005 NOSIG
VILK 210630Z 12004KT 5000 HZ SCT020 SCT025 BKN100 34/28 Q1006 NOSIG
VILK 210600Z 14005KT 5000 HZ SCT020 SCT025 BKN100 33/28 Q1007 NOSIG
VILK 210530Z 11007KT 4500 HZ SCT018 SCT025 BKN100 31/28 Q1007 NOSIG
VILK 210500Z 09006KT 4000 HZ SCT018 FEW030CB BKN090 31/27 Q1007 NOSIG
VILK 210430Z 09006KT 3000 BR SCT018 FEW030CB BKN090 30/27 Q1007 BECMG 5000 HZ
VILK 210400Z 07008KT 3000 BR SCT018 FEW030CB OVC090 28/26 Q1007 NOSIG
VILK 210330Z 07006KT 3000 BR SCT018 FEW030CB OVC090 28/26 Q1008 NOSIG
VILK 210300Z 07006KT 3000 BR SCT018 FEW030CB OVC090 28/26 Q1008 NOSIG
VILK 210230Z 07008KT 3000 BR SCT018 FEW030CB OVC090 28/26 Q1007 NOSIG
VILK 210200Z 06005KT 3000 BR SCT010 SCT018 FEW030CB OVC090 27/26 Q1008 NOSIG
VILK 210130Z 05005KT 3000 BR SCT020 FEW030CB OVC090 27/26 Q1007 NOSIG
VILK 210100Z 09005KT 3000 BR SCT020 FEW030CB BKN100 27/26 Q1007 NOSIG
VILK 210030Z 10005KT 3000 BR SCT020 BKN100 27/26 Q1006 NOSIG
VILK 210000Z VRB02KT 3000 BR SCT020 BKN100 27/26 Q1006 NOSIG
VILK 202330Z VRB02KT 3000 BR SCT020 SCT100 27/26 Q1006 NOSIG
VILK 202300Z VRB02KT 3500 BR SCT020 SCT100 27/26 Q1006 NOSIG
VILK 202230Z VRB02KT 3500 BR SCT020 SCT100 27/26 Q1006 NOSIG
VILK 202200Z VRB02KT 3500 BR SCT020 SCT100 27/26 Q1005 NOSIG
VILK 202130Z VRB02KT 3500 BR SCT020 FEW030CB SCT100 27/26 Q1005 NOSIG
VILK 202100Z VRB02KT 3500 BR SCT020 FEW030CB SCT100 28/26 Q1005 NOSIG
VILK 202030Z 14003KT 3500 BR SCT020 FEW030CB SCT100 28/26 Q1006 NOSIG
VILK 202000Z 14004KT 3500 BR SCT020 FEW030CB BKN100 28/26 Q1006 NOSIG
VILK 201930Z 14004KT 3500 BR SCT020 FEW030CB SCT100 29/27 Q1006 NOSIG
VILK 201900Z 15003KT 4000 BR SCT020 FEW030CB BKN100 29/27 Q1006 NOSIG
VILK 201830Z 15003KT 4000 BR SCT020 FEW030CB BKN100 29/27 Q1007 NOSIG
VILK 201800Z 14004KT 4000 BR SCT020 FEW030CB BKN100 29/27 Q1006 NOSIG
VILK 201730Z 16003KT 4000 BR SCT020 FEW030CB SCT100 29/27 Q1006 NOSIG
VILK 201700Z VRB02KT 4000 HZ SCT020 FEW030CB SCT100 30/28 Q1006 NOSIG
VILK 201630Z VRB02KT 4000 HZ SCT020 FEW030CB SCT100 30/28 Q1006 NOSIG
VILK 201530Z VRB02KT 4000 HZ SCT020 FEW030CB SCT100 30/28 Q1005 NOSIG
VILK 201500Z VRB02KT 4000 HZ SCT020 SCT100 30/28 Q1005 NOSIG
VILK 201430Z VRB02KT 4000 HZ SCT020 SCT100 30/28 Q1005 NOSIG
VILK 201400Z VRB02KT 4000 HZ SCT020 SCT100 31/29 Q1004 NOSIG
VILK 201330Z VRB02KT 5000 HZ FEW020 SCT025 31/29 Q1004 NOSIG
VILK 201300Z 00000KT 5000 HZ FEWT020 SCT025 31/29 Q1004 NOSIG
VILK 201230Z 00000KT 5000 HZ FEW020 SCT025 32/30 Q1004 NOSIG
VILK 201200Z VRB02KT 5000 HZ SCT020 SCT025 34/30 Q1003 NOSIG
VILK 201130Z VRB02KT 5000 HZ SCT020 SCT025 FEW030CB 34/30 Q1003KT NOSIG
VILK 201100Z VRB02KT 6000 SCT020 SCT025 FEW030CB 35/29 Q1003 BECMG 5000 HZ
VILK 201030Z VRB02KT 6000 SCT020 SCT025 FEW030CB 36/30 Q1003 NOSIG
VILK 201000Z VRB02KT 6000 SCT020 SCT025 FEW030CB 35/30 Q1004 NOSIG
VILK 200930Z VRB02KT 6000 SCT020 SCT025 FEW03CB 36/30 Q1004
VILK 200900Z 15003KT 6000 SCT020 SCT025 35/29 Q1004 NOSIG
VILK 200830Z 17003KT 6000 SCT020 SCT025 35/29 Q1005 NOSIG
VILK 200800Z 16003KT 6000 SCT020 SCT025 36/29 Q1005 NOSIG
VILK 200730Z 15004KT 6000 SCT020 SCT025 36/29 Q1006 NOSIG
VILK 200700Z 15005KT 6000 SCT020 SCT025 35/29 Q1006 NOSIG
VILK 200630Z 17003KT 6000 SCT020 SCT025 35/29 Q1007 NOSIG
VILK 200600Z 18004KT 6000 SCT020 SCT025 35/28 Q1007 NOSIG
VILK 200530Z 14003KT 6000 SCT020 SCT025 34/30 Q1008 NOSIG
VILK 200500Z 18003KT 6000 HZ SCT020 SCT025 34/30 Q1008 NOSIG
VILK 200430Z 17003KT 5000 HZ SCT020 SCT025 34/29 Q1008 NOSIG
VILK 200400Z VRB02KT 5000 HZ FEW020 SCT025 33/30 Q1008 NOSIG
VILK 200330Z VRB02KT 5000 HZ NSC 33/29 Q1008 NOSIG
VILK 200300Z VRB02KT 4000 BR NSC 31/29 Q1008 BECMG 5000 HZ
VILK 200230Z VRB02KT 3000 BR NSC 31/28 Q1007 NOSIG
VILK 200130Z 00000KT 2000 BR FEW020 29/27 Q1007 NOSIG
VILK 200100Z 00000KT 2000 BR FEW020 27/26 Q1007 NOSIG
VILK 200030Z 00000KT 2000 BR FEW020 27/26 Q1007 NOSIG
VILK 200000Z 00000KT 3000 BR FEW020 27/26 Q1007 NOSIG
VILK 192330Z 00000KT 3000 BR FEW020 27/26 Q1007 NOSIG
VILK 192300Z 00000KT 3000 BR FEW020 27/26 Q1007 NOSIG
VILK 192230Z 00000KT 3000 BR FEW020 27/26 Q1007 NOSIG
VILK 192200Z 00000KT 3000 BR FEW020 27/26 Q1007 NOSIG
VILK 192130Z 00000KT 3000 BR FEW020 27/26 Q1007 NOSIG
VILK 192100Z 00000KT 3000 BR FEW020 27/26 Q1007 NOSIG
VILK 192030Z 00000KT 3000 BR FEW020 27/26 Q1006 NOSIG
VILK 192000Z 00000KT 3000 BR FEW020 27/26 Q1007 NOSIG
VILK 191930Z 00000KT 3000 BR FEW020 27/26 Q1007 NOSIG
VILK 191900Z 00000KT 3000 BR FEW020 27/26 Q1007 NOSIG
VILK 191830Z 00000KT 3000 BR FEW020 28/27 Q1007 NOSIG
VILK 191800Z VRB02KT 3000 BR FEW020 28/27 Q1007 NOSIG
VILK 191730Z 00000KT 3000 BR FEW020 28/27 Q1007 NOSIG
VILK 191700Z 00000KT 3000 BR FEW020 28/27 Q1007 NOSIG
VILK 191630Z 00000KT 3000 BR SCT020 28/27 Q1007 NOSIG
VILK 191600Z 00000KT 4000 BR SCT020 28/27 Q1007 NOSIG
VILK 191530Z 00000KT 4000 BR SCT020 29/27 Q1007 NOSIG
VILK 191500Z 00000KT 4000 BR SCT020 29/27 Q1007 NOSIG
VILK 191430Z 00000KT 4000 BR SCT020 29/27 Q1006 NOSIG
VILK 191400Z VRB02KT 4000 BR SCT020 30/27 Q1006 NOSIG
VILK 191330Z 00000KT 5000 HZ SCT020 30/27 Q1005 NOSIG
VILK 191300Z 00000KT 5000 HZ SCT020 32/28 Q1005 NOSIG
VILK 191230Z VRB02KT 6000 FEW020 32/28 Q1005 BECMG 5000 HZ
VILK 191200Z VRB02KT 6000 FEW020 33/29 Q1005 NOSIG
VILK 191130Z 20003KT 6000 SCT020 SCT025 33/29 Q1005 NOSIG
VILK 191100Z VRB02KT 6000 SCT020 SCT025 34/29 Q1005 NOSIG
VILK 191030Z 18004KT 6000 SCT020 SCT025 34/28 Q1005 NOSIG
VILK 191000Z 26004KT 6000 SCT020 SCT025 34/28 Q1005 NOSIG
VILK 190930Z 19003KT 6000 SCT020 SCT025 35/29 Q1005 NOSIG
VILK 190900Z 20004KT 6000 SCT020 SCT025 35/28 Q1006 NOSIG
VILK 190830Z 22004KT 6000 SCT020 SCT025 34/28 Q1006 NOSIG
VILK 190800Z 27005KT 5000 HZ SCT020 SCT025 34/28 Q1007 NOSIG
VILK 190730Z 18004KT 5000 HZ SCT020 SCT025 34/28 Q1007 NOSIG
VILK 190700Z 28004KT 5000 HZ SCT020 SCT025 34/28 Q1008 NOSIG
VILK 190630Z 20004KT 5000 HZ SCT020 SCT025 34/28 Q1008 NOSIG
VILK 190600Z 27004KT 5000 HZ SCT020 SCT025 33/28 Q1009 NOSIG
VILK 190530Z 26004KT 5000 HZ SCT020 SCT025 34/29 Q1009 NOSIG
VILK 190500Z 18003KT 5000 HZ FEW020 33/28 Q1009 NOSIG
VILK 190430Z 18003KT 5000 HZ NSC 33/28 Q1009 NOSIG
VILK 190400Z 19003KT 4000 HZ NSC 32/29 Q1009 BECMG 5000 HZ
VILK 190330Z 19003KT 4000 HZ NSC 32/28 Q1009 NOSIG
VILK 190300Z VRB02KT 4000 BR NSC 10/28 Q1008 NOSIG
VILK 190230Z VRB02KT 3000 BR NSC 30/28 Q1008 NOSIG
VILK 190200Z 00000KT 1500 R27/2000 BR NSC 29/27 Q1008 BECMG VIS 3000 BR HZ
VILK 190130Z 00000KT 0800 R27/1500 MIFG NSC 28/27 Q1007 BECMG VIS 1500 BR
VILK 190100Z 00000KT 0500 R27/1000 FG NSC 27/26 Q1007 BECMG VIS 0800 MIFG BR
VILK 190030Z 00000KT 0500 R27/1000 FG VV/// 27/26 Q1007 NOSIG
VILK 190000Z 00000KT 4000 BR FEW100 27/26 Q1007 NOSIG
VILK 182330Z 00000KT 4000 BR SCT020 SCT100 27/26 Q1007 NOSIG
VILK 182300Z 00000KT 4000 BR SCT020 SCT100 27/26 Q1007 NOSIG
VILK 182230Z 00000KT 4000 BR SCT020 SCT100 27/26 Q1007 NOSIG
VILK 182200Z 00000KT 4000 BR SCT020 SCT100 27/26 Q1007 NOSIG
VILK 182130Z 00000KT 4000 BR SCT020 SCT100 28/27 Q1007 NOSIG
VILK 182100Z 00000KT 4000 BR SCT020 SCT100 28/27 Q1007 NOSIG
VILK 182030Z 00000KT 4000 BR SCT020 SCT100 28/27 Q1007 NOSIG
VILK 182000Z 00000KT 4000 BR SCT020 SCT100 28/27 Q1007 NOSIG
VILK 181930Z 00000KT 4000 BR FEW100 28/27 Q1007 NOSIG
VILK 181900Z 00000KT 4000 BR FEW100 28/27 Q1007 NOSIG
VILK 181830Z 00000KT 4000 BR FEW100 28/27 Q1007 NOSIG
VILK 181800Z 00000KT 4000 BR FEW100 28/27 Q1007 NOSIG
VILK 181730Z 00000KT 4000 BR FEW100 28/27 Q1007 NOSIG
VILK 181700Z 00000KT 4000 BR FEW100 28/27 Q1007 NOSIG
VILK 181630Z 00000KT 4000 BR FEW100 28/26 Q1007 NOSIG
VILK 181600Z 00000KT 4000 BR FEW100 28/26 Q1006 NOSIG
VILK 181530Z 00000KT 4000 BR FEW100 29/27 Q1006 NOSIG
VILK 181500Z 00000KT 4000 BR FEW100 29/27 Q1005 NOSIG
VILK 181430Z VRB02KT 4000 BR SCT020 29/27 Q1005 NOSIG
VILK 181400Z VRB02KT 4000 BR SCT020 SCT025 FEW030CB 29/27 Q1004 NOSIG
VILK 181330Z VRB02KT 4000 HZ SCT020 SCT025 FEW030CB 30/28 Q1004 NOSIG
VILK 181300Z VRB02KT 5000 HZ FEW020 SCT025 30/28 Q1004 NOSIG
VILK 181230Z VRB02KT 5000 HZ SCT020 SCT025 31/29 Q1003 NOSIG
VILK 181200Z VRB02KT 5000 HZ SCT020 SCT025 33/29 Q1003 NOSIG
VILK 181130Z 11003KT 5000 HZ SCT020 SCT025 33/29 Q1003 NOSIG
VILK 181100Z 13003KT 5000 HZ SCT020 SCT025 33/29 Q1003 NOSIG
VILK 181030Z 13005KT 5000 HZ SCT020 SCT025 33/29 Q1003 NOSIG
VILK 181000Z 18003KT 5000 HZ SCT020 SCT025 BKN100 34/30 Q1003 NOSIG
VILK 180930Z 14004KT 5000 HZ SCT020 SCT025 BKN100 34/29 Q1004 NOSIG
VILK 180900Z 14005KT 5000 HZ SCT020 SCT025 BKN100 34/29 Q1004 NOSIG
VILK 180830Z 12004KT 5000 HZ SCT020 SCT025 BKN100 33/29 Q1005 NOSIG
VILK 180800Z 14006KT 5000 HZ SCT018 SCT025 BKN100 33/28 Q1005 NOSIG
VILK 180730Z 14006KT 5000 HZ SCT018 SCT025 BKN100 34/29 Q1005 NOSIG
VILK 180700Z 14006KT 5000 HZ SCT018 SCT025 BKN100 33/28 Q1005 NOSIG
VILK 180630Z 14006KT 5000 HZ SCT018 SCT025 BKN100 33/28 Q1006 NOSIG
VILK 180600Z 14006KT 5000 HZ SCT018 SCT025 BKN100 32/28 Q1006 NOSIG
VILK 180530Z 15006KT 5000 HZ SCT018 SCT025 BKN100 32/28 Q1006 NOSIG
VILK 180500Z 13006KT 4000 BR SCT018 SCT025 BKN100 32/28 Q1006 NOSIG
VILK 180430Z 13006KT 4000 BR SCT018 SCT025 BKN100 31/28 Q1006 NOSIG
VILK 180400Z 12006KT 3500 BR SCT018 SCT025 BKN100 30/28 Q1006 NOSIG
VILK 180330Z 11006KT 3000 BR SCT018 SCT025 BKN100 29/26 Q1006 NOSIG
VILK 180300Z 11006KT 3000 BR SCT018 SCT025 BKN100 29/26 Q1006 NOSIG
VILK 180230Z 12005KT 2500 BR SCT018 BKN100 27/25 Q1005 NOSIG
VILK 180200Z 12005KT 2500 BR SCT018 BKN100 27/25 Q1005 NOSIG
VILK 180130Z 11005KT 2500 BR SCT018 BKN100 26/25 Q1004 NOSIG
VILK 180100Z 10005KT 2500 BR SCT018 BKN100 26/25 Q1004 NOSIG
VILK 180030Z 10004KT 2500 BR SCT018 BKN100 26/25 Q1004 NOSIG
VILK 180000Z 11003KT 3000 BR SCT018 BKN100 26/25 Q1003 NOSIG
VILK 172330Z 11004KT 3000 BR SCT018 BKN100 26/25 Q1003 NOSIG
VILK 172300Z 10006KT 3000 BR SCT018 BKN100 26/25 Q1003 NOSIG
VILK 172230Z 10006KT 3000 BR SCT018 BKN100 26/25 Q1003 NOSIG
VILK 172200Z 10006KT 3000 BR SCT018 BKN100 26/25 Q1003 NOSIG
VILK 172130Z 10006KT 3000 BR SCT018 FEW030CB BKN100 26/25 Q1003 NOSIG
VILK 172100Z 10006KT 3000 BR SCT018 FEW030CB BKN100 26/26 Q1003 NOSIG
VILK 172030Z 10006KT 3000 BR SCT018 FEW030CB OVC090 26/26 Q1003 NOSIG
VILK 172000Z 10006KT 3000 BR SCT018 FEW030CB OVC090 26/26 Q1003 NOSIG
VILK 171930Z 09006KT 3000 BR SCT018 FEW030CB BKN100 26/26 Q1004 NOSIG
VILK 171900Z 09006KT 3000 BR SCT018 FEW030CB BKN100 26/26 Q1004 NOSIG
VILK 171830Z 11005KT 3000 BR SCT018 FEW030CB BKN100 26/26 Q1004 NOSIG
VILK 171800Z 10005KT 3000 BR SCT018 FEW030CB BKN100 26/26 Q1004 NOSIG
VILK 171730Z 11005KT 3000 BR SCT018 FEW030CB BKN100 26/26 Q1004 NOSIG
VILK 171700Z 11005KT 3000 BR SCT018 BKN100 26/26 Q1004 NOSIG
VILK 171630Z 14004KT 3000 BR SCT018 FEW030CB BKN100 26/25 Q1004 NOSIG
VILK 171600Z 14008KT 3000 BR SCT015 FEW030CB BKN100 27/25 Q1004 NOSIG
VILK 171530Z 11010KT 3000 BR SCT015 FEW030CB BKN100 27/25 Q1003 NOSIG
VILK 171500Z 09006KT 3000 BR SCT018 FEW030CB BKN100 26/25 Q1002 NOSIG
VILK 171430Z 09006KT 3000 BR SCT018 FEW030CB BKN100 26/25 Q1002 NOSIG
VILK 171400Z 09008KT 3000 BR SCT018 FEW030CB BKN100 26/25 Q1001 NOSIG
VILK 171330Z 09008KT 3000 BR SCT018 FEW030CB BKN100 27/25 Q1001 NOSIG
VILK 171300Z 09007KT 3000 BR SCT018 FEW030CB BKN100 27/25 Q1001 NOSIG
VILK 171230Z 09008KT 3000 BR SCT018 FEW030CB BKN100 27/26 Q1001 NOSIG
VILK 171200Z 09009KT 3000 BR SCT018 FEW030CB BKN100 28/26 Q1000 NOSIG
VILK 171130Z 10009KT 3000 BR SCT018 SCT025 FEW030CB BKN100 28/26 Q1000 NOSIG
VILK 171100Z 08011KT 3000 BR SCT018 SCT025 FEW030CB BKN100 29/27 Q1000 NOSIG
VILK 171030Z 09010KT 3000 BR SCT018 SCT025 FEW030CB BKN100 29/27 Q1000 NOSIG
VILK 171000Z 09007KT 3000 BR SCT018 SCT025 BKN100 29/27 Q1000 NOSIG
VILK 170930Z 09010KT 3000 BR SCT018 SCT025 BKN100 28/26 Q1000 NOSIG
VILK 170900Z 09010KT 3000 -RA SCT010 SCT018 FEW030CB OVC090 28/26 Q1001 TEMPO 1500 RA TSRA
VILK 170830Z 09010KT 4000 HZ SCT010 SCT018 FEW030CB OVC090 27/25 Q1001 NOSIG
VILK 170800Z 10010KT 4000 HZ SCT018 SCT025 FEW030CB BKN100 28/26 Q1002 NOSIG
VILK 170730Z 09013KT 4000 HZ SCT018 SCT025 FEW030CB BKN100 29/27 Q1002 NOSIG
VILK 170700Z 11010KT 4000 HZ SCT018 SCT025 FEW030CB BKN100 29/27 Q1002 NOSIG
VILK 170630Z 10012KT 4000 HZ SCT018 SCT025 FEW030CB BKN100 28/26 Q1002 NOSIG
VILK 170600Z 11012KT 4000 HZ SCT018 SCT025 FEW030CB BKN100 28/26 Q1003 TEMPO 3000 RA TSRA
VILK 170530Z 11012KT 4000 HZ SCT018 SCT025 BKN100 29/27 Q1003 NOSIG
VILK 170500Z 11012KT 4000 HZ SCT018 SCT025 BKN100 29/27 Q1003 NOSIG
VILK 170430Z 10012KT 4000 BR SCT018 SCT025 BKN100 29/26 Q1003 NOSIG
VILK 170400Z 10010KT 4000 BR SCT018 SCT025 BKN100 27/25 Q1002 NOSIG
VILK 170330Z 10010KT 3500 BR SCT018 SCT025 BKN100 26/24 Q1002 NOSIG
VILK 170300Z 10010KT 3500 BR SCT018 BKN100 25/23 Q1002 NOSIG
VILK 170230Z 10010KT 3000 BR FEW010 SCT018 BKN100 24/22 Q1001 NOSIG
VILK 170130Z 10011KT 2500 BR FEW010 SCT018 FEW030CB BKN100 23/23 Q1001 NOSIG
VILK 170100Z 10010KT 2500 BR SCT010 BKN015 FEW030CB OVC090 23/23 Q1001 NOSIG
VILK 170030Z 10010KT 2500 BR SCT010 BKN015 FEW030CB OVC090 23/23 Q1000 NOSIG
VILK 170000Z 11011KT 2500 BR SCT010 BKN015 FEW030CB OVC090 24/24 Q1000 NOSIG
VILK 162330Z 10014KT 2500 -RA SCT010 BKN015 FEW030CB OVC090 24/24 Q1000 NOSIG
VILK 162300Z 11008KT 2500 -RA SCT010 BKN015 FEW030CB OVC090 24/24 Q0999 NOSIG
VILK 162230Z 11008KT 2500 -RA SCT010 BKN015 FEW030CB OVC090 25/25 Q0999 NOSIG
VILK 162030Z 11008KT 2500 -RA SCT010 BKN015 FEW030CB OVC090 25/25 Q0999 NOSIG
VILK 162000Z 10007KT 2500 -RA SCT010 BKN015 FEW030CB OVC090 25/25 Q0999 NOSIG
VILK 161930Z 10008KT 2500 -RA SCT010 BKN015 FEW030CB OVC090 25/25 Q0999 NOSIG